Time;durP1;ratioP1;P1;durP2;ratioP2;P2;SDS_P1;SDS_P2;PMS_P1;PMS_P2;Temp;Humidity;BMP_temperature;BMP_pressure;BME280_temperature;BME280_humidity;BME280_pressure;Samples;Min_cycle;Max_cycle;Signal;HPM_P1;HPM_P2
2022/03/18 00:00:24;;;;;;;22.97;4.23;;;4.70;99.90;;;;;;4934595;29;20197;-84
2022/03/18 00:02:52;;;;;;;13.60;4.30;;;4.70;99.90;;;;;;4950998;29;20537;-84
2022/03/18 00:05:19;;;;;;;22.60;4.13;;;4.70;99.90;;;;;;4952480;28;20188;-84
2022/03/18 00:07:47;;;;;;;16.53;4.67;;;4.60;99.90;;;;;;4963492;28;20593;-84
2022/03/18 00:10:14;;;;;;;15.80;4.27;;;4.60;99.90;;;;;;4949098;28;20208;-85
2022/03/18 00:12:40;;;;;;;18.33;4.67;;;4.60;99.90;;;;;;4928901;29;20257;-82
2022/03/18 00:15:11;;;;;;;30.13;6.53;;;4.60;99.90;;;;;;4961205;28;20216;-84
2022/03/18 00:17:38;;;;;;;22.03;5.83;;;4.50;99.90;;;;;;4948796;29;20272;-84
2022/03/18 00:20:05;;;;;;;19.73;5.20;;;4.70;99.90;;;;;;4951710;28;20200;-84
2022/03/18 00:22:31;;;;;;;22.77;5.10;;;4.80;99.90;;;;;;4964638;28;20201;-85
2022/03/18 00:24:58;;;;;;;21.33;4.50;;;5.00;99.90;;;;;;4974978;28;20177;-83
2022/03/18 00:27:26;;;;;;;21.87;4.17;;;5.00;99.90;;;;;;4981790;28;20177;-82
2022/03/18 00:29:54;;;;;;;12.57;3.67;;;5.10;99.90;;;;;;4980395;28;20206;-83
2022/03/18 00:32:20;;;;;;;22.53;3.67;;;5.20;99.90;;;;;;4966982;28;20184;-83
2022/03/18 00:34:46;;;;;;;15.60;3.73;;;5.00;99.90;;;;;;4965127;28;20252;-84
2022/03/18 00:37:14;;;;;;;13.70;3.93;;;5.00;99.90;;;;;;4949014;28;20180;-84
2022/03/18 00:39:39;;;;;;;18.60;4.00;;;5.10;99.90;;;;;;4966748;28;20541;-85
2022/03/18 00:42:05;;;;;;;20.03;3.57;;;5.00;99.90;;;;;;4961616;28;20235;-84
2022/03/18 00:44:31;;;;;;;17.67;4.47;;;5.00;99.90;;;;;;4960260;28;20212;-85
2022/03/18 00:46:57;;;;;;;21.90;4.90;;;4.90;99.90;;;;;;4974422;28;20628;-84
2022/03/18 00:52:07;;;;;;;26.67;4.30;;;4.90;99.90;;;;;;4974293;28;20183;-86
2022/03/18 00:54:45;;;;;;;15.63;3.17;;;5.00;99.90;;;;;;4961230;28;20200;-84
2022/03/18 00:57:11;;;;;;;15.00;3.80;;;5.00;99.90;;;;;;4967650;28;20164;-83
2022/03/18 00:59:37;;;;;;;16.13;3.97;;;4.90;99.90;;;;;;4963546;28;20189;-83
2022/03/18 01:02:03;;;;;;;14.53;3.67;;;4.70;99.90;;;;;;4942597;28;20320;-84
2022/03/18 01:04:28;;;;;;;16.83;4.13;;;4.50;99.90;;;;;;4967052;28;20256;-83
2022/03/18 01:06:55;;;;;;;15.17;3.63;;;4.50;99.90;;;;;;4963222;28;20182;-83
2022/03/18 01:09:22;;;;;;;17.53;4.17;;;4.60;99.90;;;;;;4957353;28;20268;-84
2022/03/18 01:11:50;;;;;;;21.60;4.60;;;4.50;99.90;;;;;;4945546;28;20234;-84
2022/03/18 01:14:16;;;;;;;15.47;3.97;;;4.60;99.90;;;;;;4953313;28;20183;-84
2022/03/18 01:16:42;;;;;;;14.70;4.07;;;4.50;99.90;;;;;;4953465;28;20189;-84
2022/03/18 01:19:08;;;;;;;24.13;5.13;;;4.50;99.90;;;;;;4952704;28;20204;-84
2022/03/18 01:21:35;;;;;;;21.07;5.23;;;4.60;99.90;;;;;;4963267;28;20210;-84
2022/03/18 01:24:01;;;;;;;18.87;4.47;;;4.60;99.90;;;;;;4950555;28;20177;-84
2022/03/18 01:26:28;;;;;;;18.20;4.60;;;4.40;99.90;;;;;;4948314;28;20173;-85
2022/03/18 01:28:54;;;;;;;19.60;4.57;;;4.40;99.90;;;;;;4963009;28;20211;-84
2022/03/18 01:31:21;;;;;;;19.93;4.50;;;4.30;99.90;;;;;;4967810;28;20214;-84
2022/03/18 01:33:47;;;;;;;19.73;4.67;;;4.20;99.90;;;;;;4953386;28;20207;-84
2022/03/18 01:36:13;;;;;;;16.07;3.80;;;4.10;99.90;;;;;;4972433;28;20231;-85
2022/03/18 01:38:39;;;;;;;18.23;4.57;;;4.10;99.90;;;;;;4948800;28;20196;-84
2022/03/18 01:41:05;;;;;;;18.70;4.40;;;4.20;99.90;;;;;;4956397;28;20200;-83
2022/03/18 01:43:38;;;;;;;18.63;4.77;;;4.10;99.90;;;;;;4957629;28;20169;-83
2022/03/18 01:46:05;;;;;;;19.17;4.63;;;4.20;99.90;;;;;;4977636;28;20171;-83
2022/03/18 01:48:30;;;;;;;15.27;4.27;;;4.30;99.90;;;;;;4953731;28;20584;-85
2022/03/18 01:50:56;;;;;;;15.37;3.87;;;4.40;99.90;;;;;;4955776;29;20185;-85
2022/03/18 01:53:22;;;;;;;19.20;4.43;;;4.30;99.90;;;;;;4948017;29;20188;-84
2022/03/18 01:55:48;;;;;;;18.87;4.53;;;4.20;99.90;;;;;;4969957;28;20223;-84
2022/03/18 01:58:14;;;;;;;15.30;4.77;;;4.00;99.90;;;;;;4968674;28;20189;-84
2022/03/18 02:00:39;;;;;;;14.43;3.60;;;3.90;99.90;;;;;;4968248;28;20200;-85
2022/03/18 02:03:05;;;;;;;14.13;3.97;;;3.80;99.90;;;;;;4964595;28;20223;-84
2022/03/18 02:05:31;;;;;;;18.03;4.50;;;3.80;99.90;;;;;;4950957;28;20254;-83
2022/03/18 02:07:57;;;;;;;16.83;4.10;;;3.90;99.90;;;;;;4958088;28;20187;-84
2022/03/18 02:10:23;;;;;;;17.00;4.23;;;4.00;99.90;;;;;;4967156;28;20205;-84
2022/03/18 02:12:49;;;;;;;22.10;6.03;;;4.10;99.90;;;;;;4960241;28;20183;-84
2022/03/18 02:15:14;;;;;;;16.17;4.57;;;4.20;99.90;;;;;;4973407;28;20210;-84
2022/03/18 02:17:40;;;;;;;20.57;4.63;;;4.10;99.90;;;;;;4966167;28;20184;-82
2022/03/18 02:20:06;;;;;;;15.20;4.33;;;4.10;99.90;;;;;;4961646;28;20220;-83
2022/03/18 02:22:40;;;;;;;17.73;4.50;;;4.10;99.90;;;;;;4962894;28;20199;-80
2022/03/18 02:25:12;;;;;;;15.40;4.53;;;4.20;99.90;;;;;;4968818;28;20188;-81
2022/03/18 02:27:39;;;;;;;14.00;3.77;;;4.30;99.90;;;;;;4970565;28;20248;-80
2022/03/18 02:30:08;;;;;;;16.00;4.00;;;4.40;99.90;;;;;;4947429;28;20197;-83
2022/03/18 02:32:36;;;;;;;14.50;4.37;;;4.30;99.90;;;;;;4949175;28;20165;-82
2022/03/18 02:35:02;;;;;;;12.47;3.73;;;4.40;99.90;;;;;;4970098;28;20184;-80
2022/03/18 02:37:28;;;;;;;14.13;4.10;;;4.40;99.90;;;;;;4977926;28;20169;-80
2022/03/18 02:39:55;;;;;;;18.20;4.63;;;4.30;99.90;;;;;;4969231;28;20225;-81
2022/03/18 02:42:21;;;;;;;12.37;3.47;;;4.40;99.90;;;;;;4952742;28;20220;-81
2022/03/18 02:44:46;;;;;;;12.90;3.97;;;4.40;99.90;;;;;;4984504;28;20172;-80
2022/03/18 02:47:12;;;;;;;18.23;4.90;;;4.50;99.90;;;;;;4971506;28;20188;-81
2022/03/18 02:49:38;;;;;;;15.80;4.13;;;4.50;99.90;;;;;;4964573;28;20220;-79
2022/03/18 02:52:04;;;;;;;22.90;4.80;;;4.50;99.90;;;;;;4977515;28;20213;-80
2022/03/18 02:54:30;;;;;;;14.00;4.00;;;4.50;99.90;;;;;;4957664;28;20160;-80
2022/03/18 02:56:55;;;;;;;13.73;4.13;;;4.40;99.90;;;;;;4988450;28;20172;-80
2022/03/18 02:59:21;;;;;;;21.00;4.90;;;4.40;99.90;;;;;;4954839;28;20284;-80
2022/03/18 03:01:47;;;;;;;19.73;4.17;;;4.30;99.90;;;;;;4976412;28;20313;-81
2022/03/18 03:04:14;;;;;;;19.33;4.73;;;4.10;99.90;;;;;;4987958;28;20207;-80
2022/03/18 03:09:24;;;;;;;20.67;4.70;;;3.90;99.90;;;;;;4992236;28;20220;-82
2022/03/18 03:11:50;;;;;;;12.27;4.17;;;3.90;99.90;;;;;;4956694;28;20191;-85
2022/03/18 03:14:16;;;;;;;15.30;4.40;;;3.90;99.90;;;;;;4967416;28;20252;-84
2022/03/18 03:16:42;;;;;;;16.87;4.23;;;4.00;99.90;;;;;;4968442;28;20516;-84
2022/03/18 03:19:08;;;;;;;16.20;4.07;;;4.10;99.90;;;;;;4956606;28;20700;-83
2022/03/18 03:21:34;;;;;;;17.70;4.83;;;4.20;99.90;;;;;;4965646;28;20204;-83
2022/03/18 03:24:01;;;;;;;12.07;5.10;;;4.30;99.90;;;;;;4963693;29;20180;-83
2022/03/18 03:26:27;;;;;;;17.90;5.20;;;4.00;99.90;;;;;;4944670;28;20653;-84
2022/03/18 03:28:53;;;;;;;11.97;4.00;;;3.90;99.90;;;;;;4963693;28;20196;-84
2022/03/18 03:31:19;;;;;;;20.53;4.80;;;3.50;99.90;;;;;;4966030;28;20262;-84
2022/03/18 03:33:45;;;;;;;16.33;4.97;;;3.20;99.90;;;;;;4948190;28;20243;-84
2022/03/18 03:36:11;;;;;;;14.07;5.13;;;3.00;99.90;;;;;;4942314;28;20214;-84
2022/03/18 03:38:37;;;;;;;14.27;5.60;;;3.00;99.90;;;;;;4956748;28;20200;-84
2022/03/18 03:41:04;;;;;;;16.13;5.27;;;3.20;99.90;;;;;;4942357;28;20231;-81
2022/03/18 03:43:30;;;;;;;15.60;4.23;;;3.20;99.90;;;;;;4960222;28;20199;-83
2022/03/18 03:45:56;;;;;;;16.47;4.97;;;3.50;99.90;;;;;;4956942;29;20209;-82
2022/03/18 03:48:22;;;;;;;15.43;4.93;;;3.60;99.90;;;;;;4973722;28;20180;-85
2022/03/18 03:50:49;;;;;;;11.60;4.60;;;3.70;99.90;;;;;;4973274;28;20252;-82
2022/03/18 03:53:14;;;;;;;17.83;5.10;;;3.80;99.90;;;;;;4954382;28;20262;-82
2022/03/18 03:55:40;;;;;;;15.30;4.93;;;3.80;99.90;;;;;;4983478;28;20283;-83
2022/03/18 03:58:08;;;;;;;18.50;5.83;;;3.70;99.90;;;;;;4963650;28;20279;-81
2022/03/18 04:00:36;;;;;;;15.53;5.27;;;3.50;99.90;;;;;;4966939;28;20256;-83
2022/03/18 04:03:05;;;;;;;17.40;5.77;;;3.60;99.90;;;;;;4969298;28;20257;-83
2022/03/18 04:05:32;;;;;;;13.57;4.73;;;3.60;99.90;;;;;;4961290;28;20279;-83
2022/03/18 04:07:58;;;;;;;18.53;5.40;;;3.70;99.90;;;;;;4976757;28;20204;-82
2022/03/18 04:10:24;;;;;;;15.87;5.57;;;3.80;99.90;;;;;;4971660;28;20196;-82
2022/03/18 04:12:49;;;;;;;20.80;6.30;;;3.80;99.90;;;;;;4977651;28;20173;-83
2022/03/18 04:15:15;;;;;;;14.10;5.13;;;3.70;99.90;;;;;;4978237;28;20173;-80
2022/03/18 04:17:45;;;;;;;15.43;4.80;;;3.60;99.90;;;;;;4982856;28;20185;-81
2022/03/18 04:20:14;;;;;;;17.77;5.37;;;3.70;99.90;;;;;;4953814;28;20346;-81
2022/03/18 04:22:40;;;;;;;17.87;5.47;;;3.60;99.90;;;;;;4960986;28;20353;-83
2022/03/18 04:25:08;;;;;;;19.07;5.17;;;3.40;99.90;;;;;;4977029;29;20207;-81
2022/03/18 04:27:34;;;;;;;18.60;4.97;;;3.30;99.90;;;;;;4957763;29;20180;-83
2022/03/18 04:30:00;;;;;;;11.87;5.63;;;3.00;99.90;;;;;;4959885;28;20263;-84
2022/03/18 04:32:26;;;;;;;15.53;5.40;;;3.00;99.90;;;;;;4947021;28;20196;-84
2022/03/18 04:34:52;;;;;;;14.60;5.23;;;3.10;99.90;;;;;;4970152;28;20184;-83
2022/03/18 04:37:17;;;;;;;22.43;5.87;;;3.20;99.90;;;;;;4974228;28;20204;-85
2022/03/18 04:39:43;;;;;;;12.77;4.60;;;3.30;99.90;;;;;;4979066;28;20238;-85
2022/03/18 04:42:09;;;;;;;14.60;5.73;;;3.30;99.90;;;;;;4966617;28;20197;-84
2022/03/18 04:44:35;;;;;;;18.07;5.90;;;3.20;99.90;;;;;;4959574;28;20169;-81
2022/03/18 04:47:01;;;;;;;17.80;5.13;;;3.20;99.90;;;;;;4963081;28;20177;-83
2022/03/18 04:49:27;;;;;;;15.27;5.20;;;3.40;99.90;;;;;;4966022;28;20212;-84
2022/03/18 04:51:53;;;;;;;15.83;5.20;;;3.60;99.90;;;;;;4950232;28;20183;-83
2022/03/18 04:54:18;;;;;;;22.57;6.00;;;3.60;99.90;;;;;;4967638;28;20190;-81
2022/03/18 04:59:29;;;;;;;14.53;5.43;;;3.30;99.90;;;;;;4983636;28;20313;-83
2022/03/18 05:01:55;;;;;;;17.00;5.50;;;3.30;99.90;;;;;;4972296;28;20215;-81
2022/03/18 05:04:23;;;;;;;16.93;5.63;;;3.30;99.90;;;;;;4972625;28;20283;-84
2022/03/18 05:06:49;;;;;;;17.70;5.13;;;3.30;99.90;;;;;;4955989;28;20168;-83
2022/03/18 05:09:15;;;;;;;14.20;4.73;;;3.30;99.90;;;;;;4971584;28;20219;-81
2022/03/18 05:11:41;;;;;;;13.83;4.77;;;3.30;99.90;;;;;;4971806;28;20215;-83
2022/03/18 05:14:07;;;;;;;15.93;5.40;;;3.30;99.90;;;;;;4973689;28;20176;-82
2022/03/18 05:16:32;;;;;;;15.83;5.33;;;3.30;99.90;;;;;;4972008;28;20179;-83
2022/03/18 05:18:58;;;;;;;18.97;5.27;;;3.30;99.90;;;;;;4969777;28;20219;-83
2022/03/18 05:21:24;;;;;;;20.47;5.43;;;3.30;99.90;;;;;;4984058;28;20223;-83
2022/03/18 05:23:50;;;;;;;22.00;5.83;;;3.40;99.90;;;;;;4952983;29;20177;-84
2022/03/18 05:26:16;;;;;;;16.73;4.70;;;3.60;99.90;;;;;;4952961;29;20173;-83
2022/03/18 05:28:42;;;;;;;14.63;4.83;;;3.80;99.90;;;;;;4950847;29;20204;-83
2022/03/18 05:31:09;;;;;;;16.33;6.23;;;3.90;99.90;;;;;;4966873;28;20185;-84
2022/03/18 05:33:35;;;;;;;10.20;4.57;;;4.00;99.90;;;;;;4966025;29;20177;-84
2022/03/18 05:36:02;;;;;;;19.53;5.50;;;4.00;99.90;;;;;;4948068;29;20244;-84
2022/03/18 05:38:28;;;;;;;20.23;5.87;;;4.00;99.90;;;;;;4964297;28;20204;-82
2022/03/18 05:40:54;;;;;;;17.60;5.60;;;4.00;99.90;;;;;;4948412;29;20208;-84
2022/03/18 05:43:20;;;;;;;19.93;6.20;;;4.00;99.90;;;;;;4948371;29;20301;-85
2022/03/18 05:45:49;;;;;;;17.73;5.50;;;4.00;99.90;;;;;;4946876;29;20185;-82
2022/03/18 05:48:15;;;;;;;15.03;5.90;;;4.00;99.90;;;;;;4961807;28;20180;-83
2022/03/18 05:50:43;;;;;;;18.50;6.00;;;4.10;99.90;;;;;;4973026;28;20537;-83
2022/03/18 05:53:13;;;;;;;16.13;6.07;;;4.10;99.90;;;;;;4961846;29;20185;-83
2022/03/18 05:58:25;;;;;;;12.70;6.00;;;4.00;99.90;;;;;;4977472;28;20204;-84
2022/03/18 06:00:53;;;;;;;16.03;6.70;;;4.00;99.90;;;;;;4946276;29;20208;-84
2022/03/18 06:03:19;;;;;;;16.00;6.33;;;4.10;99.90;;;;;;4961760;28;20191;-84
2022/03/18 06:05:45;;;;;;;21.37;6.60;;;4.20;99.90;;;;;;4960570;28;20264;-83
2022/03/18 06:13:39;;;;;;;14.20;5.90;;;4.50;99.90;;;;;;4981833;28;20188;-81
2022/03/18 06:16:05;;;;;;;16.33;5.53;;;4.60;99.90;;;;;;4950441;29;20196;-84
2022/03/18 06:18:30;;;;;;;15.90;5.77;;;4.60;99.90;;;;;;4962798;28;20211;-83
2022/03/18 06:20:56;;;;;;;13.83;6.50;;;4.60;99.90;;;;;;4956135;28;20235;-84
2022/03/18 06:23:23;;;;;;;18.40;6.00;;;4.70;99.90;;;;;;4964489;29;20268;-83
2022/03/18 06:25:48;;;;;;;21.00;5.93;;;4.80;99.90;;;;;;4947776;29;20196;-84
2022/03/18 06:28:14;;;;;;;13.40;5.60;;;4.80;99.90;;;;;;4963222;28;20191;-83
2022/03/18 06:30:40;;;;;;;15.23;5.87;;;4.80;99.90;;;;;;4947248;29;20188;-84
2022/03/18 06:33:06;;;;;;;20.57;6.57;;;4.70;99.90;;;;;;4963330;28;20195;-83
2022/03/18 06:35:32;;;;;;;17.13;6.97;;;4.80;99.90;;;;;;4948162;29;20185;-83
2022/03/18 06:37:59;;;;;;;20.20;6.83;;;4.70;99.90;;;;;;4962860;28;20191;-83
2022/03/18 06:40:25;;;;;;;13.00;6.00;;;4.60;99.90;;;;;;4947488;29;20225;-83
2022/03/18 06:42:53;;;;;;;16.77;6.60;;;4.70;99.90;;;;;;4947243;29;20212;-84
2022/03/18 06:45:18;;;;;;;16.37;6.33;;;4.60;99.90;;;;;;4963654;29;20536;-84
2022/03/18 06:47:44;;;;;;;18.17;6.50;;;4.60;99.90;;;;;;4953016;29;20204;-82
2022/03/18 06:50:10;;;;;;;18.23;6.13;;;4.60;99.90;;;;;;4961401;28;20216;-81
2022/03/18 06:52:36;;;;;;;13.33;6.17;;;4.70;99.90;;;;;;4973727;29;20271;-83
2022/03/18 06:55:02;;;;;;;19.43;5.90;;;4.70;99.90;;;;;;4955510;29;20184;-83
2022/03/18 06:57:28;;;;;;;16.17;5.87;;;4.60;99.90;;;;;;4973219;28;20176;-80
2022/03/18 06:59:53;;;;;;;18.33;6.27;;;4.60;99.90;;;;;;4952370;29;20303;-83
2022/03/18 07:02:19;;;;;;;16.03;6.23;;;4.70;99.90;;;;;;4963991;28;20572;-84
2022/03/18 07:04:45;;;;;;;17.20;6.43;;;4.80;99.90;;;;;;4947776;29;20169;-84
2022/03/18 07:07:11;;;;;;;15.43;5.90;;;4.90;99.90;;;;;;4962409;28;20177;-84
2022/03/18 07:09:36;;;;;;;15.53;6.53;;;5.00;99.90;;;;;;4946855;28;20232;-84
2022/03/18 07:12:04;;;;;;;21.23;6.70;;;4.90;99.90;;;;;;4969276;28;20199;-84
2022/03/18 07:14:31;;;;;;;16.60;7.03;;;4.70;99.90;;;;;;4962017;28;20184;-84
2022/03/18 07:19:43;;;;;;;18.03;7.70;;;4.50;99.90;;;;;;4972326;28;20327;-84
2022/03/18 07:22:09;;;;;;;19.13;7.43;;;4.70;99.90;;;;;;4973051;28;20197;-85
2022/03/18 07:24:37;;;;;;;21.80;7.07;;;4.70;99.90;;;;;;4978900;28;20524;-85
2022/03/18 07:27:03;;;;;;;17.97;6.87;;;4.80;99.90;;;;;;4966894;28;20192;-83
2022/03/18 07:29:29;;;;;;;19.30;7.37;;;4.90;99.90;;;;;;4984547;28;20285;-82
2022/03/18 07:31:55;;;;;;;16.00;7.30;;;4.90;99.90;;;;;;4965275;28;20247;-83
2022/03/18 07:34:22;;;;;;;18.37;7.10;;;5.00;99.90;;;;;;4964579;28;20207;-83
2022/03/18 07:36:48;;;;;;;19.20;7.47;;;4.90;99.90;;;;;;4984571;28;20173;-83
2022/03/18 07:39:18;;;;;;;13.63;6.60;;;4.90;99.90;;;;;;4963533;28;20196;-84
2022/03/18 07:41:43;;;;;;;24.17;6.87;;;5.10;99.90;;;;;;4955895;28;20204;-84
2022/03/18 07:44:11;;;;;;;18.90;6.50;;;5.30;99.90;;;;;;4987417;28;20177;-83
2022/03/18 07:46:37;;;;;;;20.60;7.47;;;5.40;99.90;;;;;;4962801;28;20179;-83
2022/03/18 07:49:03;;;;;;;14.60;6.80;;;5.60;99.90;;;;;;4962586;28;20208;-84
2022/03/18 07:51:30;;;;;;;19.13;7.57;;;5.80;99.90;;;;;;4991508;28;20170;-80
2022/03/18 07:53:56;;;;;;;14.37;6.27;;;5.80;99.90;;;;;;4980439;28;20180;-84
2022/03/18 07:56:22;;;;;;;16.83;7.27;;;5.80;99.90;;;;;;4966457;28;20190;-82
2022/03/18 07:58:48;;;;;;;15.30;7.10;;;5.80;99.90;;;;;;4962296;28;20204;-83
2022/03/18 08:01:14;;;;;;;17.87;7.40;;;5.60;99.90;;;;;;4963616;28;20204;-84
2022/03/18 08:03:40;;;;;;;20.63;7.40;;;5.60;99.90;;;;;;4972996;28;20637;-84
2022/03/18 08:06:09;;;;;;;18.37;7.03;;;5.70;99.90;;;;;;4969170;28;20186;-84
2022/03/18 08:08:36;;;;;;;19.67;8.17;;;5.70;99.90;;;;;;4955737;28;20195;-84
2022/03/18 08:11:02;;;;;;;18.33;7.10;;;5.80;99.90;;;;;;4954204;28;20200;-84
2022/03/18 08:13:29;;;;;;;23.37;7.60;;;5.70;99.90;;;;;;4971088;28;20205;-85
2022/03/18 08:15:55;;;;;;;14.90;6.73;;;5.60;99.90;;;;;;4962980;28;20253;-84
2022/03/18 08:18:21;;;;;;;17.93;7.20;;;5.70;99.90;;;;;;4956865;28;20209;-84
2022/03/18 08:20:51;;;;;;;13.70;6.23;;;5.60;99.90;;;;;;4981083;28;20264;-84
2022/03/18 08:23:18;;;;;;;17.47;7.90;;;5.40;99.90;;;;;;4992520;28;20191;-83
2022/03/18 08:25:44;;;;;;;19.73;6.70;;;5.50;99.90;;;;;;4969088;28;20202;-85
2022/03/18 08:28:10;;;;;;;15.80;7.00;;;5.80;99.90;;;;;;4972159;28;20177;-84
2022/03/18 08:30:37;;;;;;;16.70;6.77;;;6.10;99.90;;;;;;4973467;28;20182;-83
2022/03/18 08:33:03;;;;;;;15.00;6.97;;;6.20;99.90;;;;;;4962878;28;20189;-82
2022/03/18 08:35:30;;;;;;;22.90;7.30;;;6.00;99.90;;;;;;4973858;28;20194;-84
2022/03/18 08:37:59;;;;;;;19.13;7.30;;;5.70;99.90;;;;;;4955721;28;20168;-83
2022/03/18 08:40:32;;;;;;;15.83;6.80;;;5.60;99.90;;;;;;4962235;28;20720;-84
2022/03/18 08:42:59;;;;;;;13.20;6.30;;;5.70;99.90;;;;;;4950870;28;20200;-85
2022/03/18 08:45:26;;;;;;;14.07;6.70;;;5.90;99.90;;;;;;4961726;28;20183;-83
2022/03/18 08:47:53;;;;;;;14.50;7.17;;;5.90;99.90;;;;;;4971829;28;20274;-84
2022/03/18 08:50:21;;;;;;;15.33;6.93;;;5.90;99.90;;;;;;4986140;28;20669;-84
2022/03/18 08:52:49;;;;;;;13.67;6.83;;;6.00;99.90;;;;;;4965724;28;20241;-83
2022/03/18 08:55:15;;;;;;;17.70;6.43;;;6.10;99.90;;;;;;4953631;28;20185;-84
2022/03/18 08:57:42;;;;;;;19.17;7.60;;;5.90;99.90;;;;;;4952056;28;20188;-81
2022/03/18 09:00:10;;;;;;;16.90;7.03;;;5.70;99.90;;;;;;4965568;28;20204;-83
2022/03/18 09:02:37;;;;;;;12.40;7.73;;;5.70;99.90;;;;;;4968524;28;20202;-82
2022/03/18 09:05:04;;;;;;;17.43;7.87;;;5.80;99.90;;;;;;4952755;28;20207;-85
2022/03/18 09:07:30;;;;;;;15.07;8.13;;;5.80;99.90;;;;;;4972654;28;20165;-81
2022/03/18 09:09:56;;;;;;;15.33;8.10;;;5.80;99.90;;;;;;4963617;28;20193;-82
2022/03/18 09:12:35;;;;;;;17.30;7.27;;;5.90;99.90;;;;;;4975013;23;20301;-83
2022/03/18 09:22:37;;;;;;;18.10;7.43;;;6.50;99.90;;;;;;4981380;28;20253;-81
2022/03/18 09:25:20;;;;;;;19.77;7.23;;;6.80;99.90;;;;;;4969164;28;20646;-81
2022/03/18 09:28:16;;;;;;;16.43;7.60;;;7.10;99.90;;;;;;4942564;28;20196;-84
2022/03/18 09:30:52;;;;;;;14.07;7.70;;;7.30;99.90;;;;;;4967546;28;20191;-83
2022/03/18 09:33:20;;;;;;;14.67;7.77;;;7.50;99.90;;;;;;4959681;28;20175;-84
2022/03/18 09:39:49;;;;;;;15.93;7.73;;;7.50;99.90;;;;;;4974099;28;20197;-82
2022/03/18 09:42:15;;;;;;;13.63;7.03;;;7.40;99.90;;;;;;4952322;28;20291;-85
2022/03/18 09:44:41;;;;;;;12.70;7.37;;;7.50;99.90;;;;;;4974877;28;20189;-84
2022/03/18 09:47:11;;;;;;;14.83;7.63;;;7.60;99.90;;;;;;4961665;28;20181;-83
2022/03/18 09:49:37;;;;;;;16.37;6.90;;;7.80;99.90;;;;;;4969167;28;20247;-83
2022/03/18 09:52:05;;;;;;;12.40;7.20;;;8.00;99.90;;;;;;4962536;28;20203;-83
2022/03/18 09:54:32;;;;;;;12.57;6.70;;;8.20;99.90;;;;;;4968449;28;20207;-82
2022/03/18 09:57:00;;;;;;;19.57;7.60;;;8.30;99.90;;;;;;4974674;28;20587;-82
2022/03/18 09:59:27;;;;;;;12.13;6.67;;;8.40;99.90;;;;;;4957707;28;20188;-84
2022/03/18 10:02:25;;;;;;;16.23;7.40;;;8.30;99.90;;;;;;4949753;28;20242;-83
2022/03/18 10:04:54;;;;;;;15.40;6.73;;;8.30;99.90;;;;;;4956219;28;20664;-82
2022/03/18 10:07:25;;;;;;;14.07;6.47;;;8.40;99.90;;;;;;4957351;28;20180;-82
2022/03/18 10:10:15;;;;;;;12.97;6.80;;;8.50;99.90;;;;;;4961742;28;20172;-83
2022/03/18 10:12:47;;;;;;;16.77;6.97;;;8.50;99.90;;;;;;4968309;28;20215;-82
2022/03/18 10:15:30;;;;;;;17.70;7.47;;;8.50;99.90;;;;;;4978730;28;20493;-82
2022/03/18 10:17:57;;;;;;;11.97;6.67;;;8.40;99.90;;;;;;4974130;28;20175;-82
2022/03/18 10:20:38;;;;;;;15.57;6.93;;;8.50;99.90;;;;;;4960768;28;20176;-83
2022/03/18 10:23:16;;;;;;;16.57;7.63;;;8.80;99.90;;;;;;4959983;28;20328;-83
2022/03/18 10:26:02;;;;;;;15.23;7.37;;;9.10;99.90;;;;;;4977329;28;20202;-83
2022/03/18 10:28:44;;;;;;;14.77;7.03;;;9.40;99.90;;;;;;4974200;28;20234;-83
2022/03/18 10:31:18;;;;;;;13.43;6.73;;;9.80;99.90;;;;;;4958127;28;20196;-83
2022/03/18 10:37:04;;;;;;;15.53;6.90;;;10.10;99.90;;;;;;4966788;28;20193;-79
2022/03/18 10:39:31;;;;;;;16.60;7.53;;;10.70;99.90;;;;;;4962534;28;20207;-77
2022/03/18 10:42:09;;;;;;;17.00;6.97;;;10.90;99.90;;;;;;4964446;28;20358;-77
2022/03/18 10:44:56;;;;;;;18.27;7.87;;;10.90;99.90;;;;;;4949960;28;20172;-81
2022/03/18 10:47:42;;;;;;;12.60;6.60;;;10.90;99.90;;;;;;4958609;28;20283;-82
2022/03/18 10:50:11;;;;;;;17.37;6.97;;;11.00;99.90;;;;;;4970985;28;20173;-83
2022/03/18 10:52:49;;;;;;;14.93;7.43;;;11.30;99.90;;;;;;4977831;28;20216;-82
2022/03/18 10:55:14;;;;;;;17.67;7.87;;;11.50;99.90;;;;;;4993706;28;20266;-83
2022/03/18 10:57:46;;;;;;;16.60;7.80;;;11.60;99.90;;;;;;4964113;28;20175;-77
2022/03/18 11:00:13;;;;;;;14.67;6.90;;;11.90;99.90;;;;;;4957926;28;20226;-77
2022/03/18 11:02:42;;;;;;;17.50;6.93;;;12.20;99.90;;;;;;4965777;28;20216;-76
2022/03/18 11:05:10;;;;;;;16.90;7.67;;;12.30;99.90;;;;;;4959135;28;20518;-76
2022/03/18 11:07:41;;;;;;;15.57;7.67;;;12.70;98.90;;;;;;4977866;28;20274;-76
2022/03/18 11:12:56;;;;;;;14.00;7.53;;;13.50;97.30;;;;;;4962105;28;20216;-76
2022/03/18 11:15:25;;;;;;;20.23;7.47;;;14.00;96.30;;;;;;4952068;28;20191;-76
2022/03/18 11:17:56;;;;;;;14.70;7.07;;;14.80;94.40;;;;;;4972477;28;20182;-77
2022/03/18 11:20:26;;;;;;;18.17;7.23;;;15.60;92.60;;;;;;4963225;28;20243;-76
2022/03/18 11:22:51;;;;;;;17.83;7.53;;;16.30;90.30;;;;;;4953947;28;20294;-77
2022/03/18 11:25:18;;;;;;;16.77;7.60;;;15.50;89.90;;;;;;4941022;28;20264;-77
2022/03/18 11:27:45;;;;;;;14.27;7.50;;;14.90;91.30;;;;;;4974528;28;20176;-76
2022/03/18 11:30:26;;;;;;;16.90;7.17;;;14.40;92.50;;;;;;4982288;28;20172;-77
2022/03/18 11:33:09;;;;;;;24.30;8.00;;;14.30;93.10;;;;;;4961316;28;20192;-76
2022/03/18 11:35:50;;;;;;;16.60;7.80;;;14.10;93.00;;;;;;4965357;28;20252;-78
2022/03/18 11:38:18;;;;;;;16.90;7.27;;;14.00;93.00;;;;;;4988940;28;20230;-76
2022/03/18 11:40:57;;;;;;;12.90;6.83;;;14.20;93.20;;;;;;4975919;28;20172;-76
2022/03/18 11:43:42;;;;;;;14.93;7.17;;;14.90;91.60;;;;;;4989880;28;20165;-77
2022/03/18 11:46:17;;;;;;;14.73;6.97;;;15.40;90.20;;;;;;4982609;28;20220;-77
2022/03/18 11:48:54;;;;;;;13.80;7.03;;;15.60;89.10;;;;;;4969870;28;20206;-76
2022/03/18 11:51:40;;;;;;;18.23;6.87;;;15.70;88.20;;;;;;4982868;28;20202;-78
2022/03/18 11:54:12;;;;;;;16.23;7.50;;;15.50;87.30;;;;;;4984036;28;20186;-76
2022/03/18 11:56:51;;;;;;;12.97;7.00;;;15.10;88.40;;;;;;4966227;28;20192;-76
2022/03/18 11:59:27;;;;;;;19.13;7.63;;;15.20;89.30;;;;;;4983912;28;20180;-80
2022/03/18 12:02:03;;;;;;;13.93;6.67;;;15.10;89.30;;;;;;4982234;28;20207;-81
2022/03/18 12:04:36;;;;;;;12.30;5.97;;;15.20;88.50;;;;;;4964185;28;20172;-81
2022/03/18 12:07:20;;;;;;;13.10;6.43;;;14.80;88.90;;;;;;4974224;28;20175;-80
2022/03/18 12:09:54;;;;;;;16.20;8.47;;;14.70;90.00;;;;;;4989780;28;20172;-80
2022/03/18 12:12:26;;;;;;;14.13;5.20;;;14.80;89.90;;;;;;4967827;28;20222;-81
2022/03/18 12:14:53;;;;;;;13.90;6.40;;;14.60;87.30;;;;;;4972421;28;20243;-80
2022/03/18 12:17:21;;;;;;;15.83;5.97;;;14.10;90.30;;;;;;4975176;28;20187;-79
2022/03/18 12:19:49;;;;;;;16.73;6.43;;;13.70;91.20;;;;;;4960642;28;20198;-80
2022/03/18 12:22:17;;;;;;;15.13;6.37;;;13.40;94.10;;;;;;4982673;28;20259;-81
2022/03/18 12:24:43;;;;;;;16.87;6.03;;;12.70;95.30;;;;;;4981769;28;20210;-79
2022/03/18 12:27:08;;;;;;;11.93;5.70;;;12.30;96.20;;;;;;4965169;28;20176;-79
2022/03/18 12:29:34;;;;;;;13.40;7.17;;;12.00;96.90;;;;;;4968441;28;20272;-79
2022/03/18 12:32:03;;;;;;;14.13;6.60;;;11.90;96.90;;;;;;4977076;28;20200;-80
2022/03/18 12:34:29;;;;;;;9.87;5.80;;;12.10;97.10;;;;;;4966192;28;20180;-78
2022/03/18 12:36:55;;;;;;;11.63;5.83;;;12.40;96.50;;;;;;4965528;28;20180;-80
2022/03/18 12:39:30;;;;;;;12.27;5.50;;;12.50;96.30;;;;;;5145335;27;20656;-80
2022/03/18 12:42:11;;;;;;;10.97;5.03;;;12.70;95.80;;;;;;5105843;28;20195;-79
2022/03/18 12:44:36;;;;;;;10.63;5.13;;;13.00;95.50;;;;;;5120991;28;20191;-79
2022/03/18 12:47:07;;;;;;;13.97;4.70;;;13.40;94.60;;;;;;5091955;28;20172;-79
2022/03/18 12:49:37;;;;;;;12.00;5.87;;;13.50;94.40;;;;;;5097308;28;20168;-79
2022/03/18 12:52:11;;;;;;;13.07;5.00;;;13.70;94.90;;;;;;5106837;28;20337;-79
2022/03/18 12:54:39;;;;;;;12.40;4.13;;;13.80;94.00;;;;;;5093706;28;20178;-78
2022/03/18 12:57:14;;;;;;;10.53;3.00;;;13.80;94.50;;;;;;5104774;28;20171;-78
2022/03/18 12:59:40;;;;;;;7.10;2.80;;;13.90;93.40;;;;;;5098979;27;20175;-77
2022/03/18 13:02:06;;;;;;;8.43;3.80;;;13.90;92.60;;;;;;5103866;28;20222;-78
2022/03/18 13:04:34;;;;;;;8.97;3.33;;;14.10;93.00;;;;;;5093714;28;20363;-79
2022/03/18 13:07:01;;;;;;;10.63;4.23;;;14.20;92.30;;;;;;5099169;28;20170;-77
2022/03/18 13:09:27;;;;;;;9.43;3.80;;;14.30;92.40;;;;;;5090236;28;20186;-78
2022/03/18 13:11:53;;;;;;;10.03;4.57;;;14.40;92.00;;;;;;5097530;28;20202;-78
2022/03/18 13:14:35;;;;;;;13.73;4.47;;;14.40;92.30;;;;;;5092716;28;20171;-76
2022/03/18 13:17:04;;;;;;;12.40;5.10;;;14.30;92.40;;;;;;5091577;28;20221;-76
2022/03/18 13:19:41;;;;;;;11.23;4.93;;;14.40;92.70;;;;;;5095063;28;20184;-76
2022/03/18 13:22:07;;;;;;;11.27;5.00;;;14.60;92.50;;;;;;5090215;28;20191;-76
2022/03/18 13:24:33;;;;;;;8.97;4.93;;;14.80;92.30;;;;;;5112547;28;20166;-76
2022/03/18 13:26:59;;;;;;;8.53;4.10;;;14.80;92.00;;;;;;5093221;28;20176;-76